Molokai, Hawaii
Current Conditions -  °F | °C
As of 6:54 AM on Saturday 25 Oct 2014 (Local Time) from PHMK Reporting Station
Few Clouds Few Clouds  
Wind Chill: 75°   Ceiling: Unl
Heat Index: 75°   Visibility: 10mi
Dew Point: 73°   Wind: 6mph
Humidity: 94%   Direction: 20°NNE
Pressure: 30.03"   Gusts: NA
Location:  21.13°N, 157.18°W
Report Text: PHMK 251654Z 02005KT 10SM FEW032 24/23 A3003 RMK AO2 SLP169 P0001 T02390228 $
Loading
Personal Weather Stations






























Interactive Weather Map
Tropical Storm Tracking
New forecast layout! Learn more

10-Day Weather Forecast

Advertisements
Track Severe Weather on mobile